NCAR-RAP Real-Time Weather Data

Output produced by METARs form (18 August 2018  01:02 UTC)
found at http://weather.rap.ucar.edu/surface/
 
RJAF 180000Z 08003KT 360V160 9999 FEW020 BKN/// 17/10 Q1016
RJAF 172330Z VRB02KT 9999 FEW020 BKN/// 16/11 Q1016
RJAF 172310Z 01003KT 320V080 9999 FEW020 BKN/// 16/11 Q1016 RMK 1CU020 A3001
RJAF 170700Z 34014KT 310V010 9999 FEW050 23/10 Q1012
RJAF 170600Z 36011KT 330V030 9999 FEW050 23/09 Q1012
RJAF 170500Z 02012KT 350V050 9999 FEW050 24/09 Q1012
RJAF 170400Z VRB05KT 9999 FEW050 24/09 Q1012
RJAF 170300Z 35011KT 320V030 9999 FEW040 SCT050 23/09 Q1013
RJAF 170200Z 36013KT 340V040 9999 FEW040 SCT050 23/08 Q1013
RJAF 170100Z 01013KT 340V050 9999 FEW025 SCT030 22/10 Q1013
RJAF 170000Z 01012KT 9999 SCT025 21/13 Q1013
RJAF 162330Z 35010KT 9999 FEW020 SCT025 19/13 Q1013
RJAF 162310Z 35011KT 9999 FEW020 SCT025 19/13 Q1013 RMK 1CU020 3CU025 A2992
RJAF 160700Z 20005KT 170V240 9999 -SHRA FEW003 SCT020 BKN040 21/20 Q1009
RJAF 160641Z 34011KT 300V010 8000 SHRA FEW003 SCT015 BKN050 20/19 Q1009 RMK 1ST003 4ST015 6CU050 A2980
RJAF 160633Z 33015G25KT 3000 SHRA FEW007 BKN015 BKN025 21/19 Q1009 RMK 1ST007 5ST015 6CU025 A2980 P/RR
RJAF 160600Z 18014KT 9999 -SHRA FEW010 SCT040 BKN080 25/21 Q1008
RJAF 160500Z 16012KT 9999 -SHRA FEW015 SCT040 BKN080 25/21 Q1008
RJAF 160400Z 15014KT 9999 -SHRA FEW025 SCT050 BKN090 24/21 Q1008
RJAF 160300Z 15012KT 110V180 9999 -SHRA FEW015 SCT030 BKN100 24/21 Q1010
RJAF 160200Z 15015KT 9999 VCSH FEW015 SCT050 BKN090 27/20 Q1009
RJAF 160100Z 16015KT 9999 -SHRA FEW015 SCT050 BKN070 26/20 Q1010
RJAF 160000Z 16012KT 9999 -SHRA FEW020 SCT040 BKN100 27/19 Q1010
RJAF 152330Z 15014KT 9999 FEW015 SCT040 BKN120 26/20 Q1010
RJAF 152310Z 15014KT 9999 FEW015 SCT040 BKN140 26/20 Q1010 RMK 1ST015 3CU040 5AC140 A2984